sensor_id;sensor_type;location;lat;lon;timestamp;P1;durP1;ratioP1;P2;durP2;ratioP2
21886;SDS011;11108;49.988;8.182;2022-11-11T00:01:36;4.73;;;4.23;;
21886;SDS011;11108;49.988;8.182;2022-11-11T00:04:01;3.90;;;3.60;;
21886;SDS011;11108;49.988;8.182;2022-11-11T00:06:27;3.50;;;3.20;;
21886;SDS011;11108;49.988;8.182;2022-11-11T00:08:52;3.77;;;3.47;;
21886;SDS011;11108;49.988;8.182;2022-11-11T00:11:17;4.00;;;3.30;;
21886;SDS011;11108;49.988;8.182;2022-11-11T00:13:42;3.73;;;3.33;;
21886;SDS011;11108;49.988;8.182;2022-11-11T00:16:09;3.67;;;3.37;;
21886;SDS011;11108;49.988;8.182;2022-11-11T00:18:34;3.97;;;3.60;;
21886;SDS011;11108;49.988;8.182;2022-11-11T00:21:18;3.80;;;3.43;;
21886;SDS011;11108;49.988;8.182;2022-11-11T00:24:02;3.00;;;2.80;;
21886;SDS011;11108;49.988;8.182;2022-11-11T00:26:46;3.57;;;3.27;;
21886;SDS011;11108;49.988;8.182;2022-11-11T00:29:11;3.90;;;3.40;;
21886;SDS011;11108;49.988;8.182;2022-11-11T00:31:37;3.60;;;3.30;;
21886;SDS011;11108;49.988;8.182;2022-11-11T00:34:22;4.03;;;3.63;;
21886;SDS011;11108;49.988;8.182;2022-11-11T00:36:47;3.63;;;3.40;;
21886;SDS011;11108;49.988;8.182;2022-11-11T00:39:12;3.30;;;3.10;;
21886;SDS011;11108;49.988;8.182;2022-11-11T00:41:37;4.13;;;3.83;;
21886;SDS011;11108;49.988;8.182;2022-11-11T00:44:03;3.60;;;3.30;;
21886;SDS011;11108;49.988;8.182;2022-11-11T00:46:28;3.50;;;3.20;;
21886;SDS011;11108;49.988;8.182;2022-11-11T00:49:12;3.17;;;2.67;;
21886;SDS011;11108;49.988;8.182;2022-11-11T00:51:56;3.63;;;3.33;;
21886;SDS011;11108;49.988;8.182;2022-11-11T00:54:21;3.60;;;3.33;;
21886;SDS011;11108;49.988;8.182;2022-11-11T00:56:46;3.07;;;2.80;;
21886;SDS011;11108;49.988;8.182;2022-11-11T00:59:11;3.40;;;3.10;;
21886;SDS011;11108;49.988;8.182;2022-11-11T01:01:36;3.37;;;3.13;;
21886;SDS011;11108;49.988;8.182;2022-11-11T01:04:02;3.60;;;3.30;;
21886;SDS011;11108;49.988;8.182;2022-11-11T01:06:28;3.27;;;3.07;;
21886;SDS011;11108;49.988;8.182;2022-11-11T01:08:53;3.30;;;3.10;;
21886;SDS011;11108;49.988;8.182;2022-11-11T01:11:19;3.23;;;3.03;;
21886;SDS011;11108;49.988;8.182;2022-11-11T01:13:44;3.40;;;3.10;;
21886;SDS011;11108;49.988;8.182;2022-11-11T01:16:17;3.03;;;2.83;;
21886;SDS011;11108;49.988;8.182;2022-11-11T01:18:43;3.77;;;3.10;;
21886;SDS011;11108;49.988;8.182;2022-11-11T01:23:34;2.93;;;2.73;;
21886;SDS011;11108;49.988;8.182;2022-11-11T01:26:00;3.33;;;3.13;;
21886;SDS011;11108;49.988;8.182;2022-11-11T01:28:26;3.10;;;2.90;;
21886;SDS011;11108;49.988;8.182;2022-11-11T01:30:51;3.10;;;2.90;;
21886;SDS011;11108;49.988;8.182;2022-11-11T01:33:16;4.40;;;2.80;;
21886;SDS011;11108;49.988;8.182;2022-11-11T01:35:42;3.00;;;2.80;;
21886;SDS011;11108;49.988;8.182;2022-11-11T01:38:07;2.77;;;2.57;;
21886;SDS011;11108;49.988;8.182;2022-11-11T01:40:42;2.80;;;2.60;;
21886;SDS011;11108;49.988;8.182;2022-11-11T01:48:10;2.97;;;2.77;;
21886;SDS011;11108;49.988;8.182;2022-11-11T01:50:57;2.97;;;2.77;;
21886;SDS011;11108;49.988;8.182;2022-11-11T01:53:22;3.00;;;2.80;;
21886;SDS011;11108;49.988;8.182;2022-11-11T01:55:47;3.17;;;2.97;;
21886;SDS011;11108;49.988;8.182;2022-11-11T01:58:13;3.67;;;3.33;;
21886;SDS011;11108;49.988;8.182;2022-11-11T02:00:39;3.17;;;2.87;;
21886;SDS011;11108;49.988;8.182;2022-11-11T02:03:05;2.80;;;2.60;;
21886;SDS011;11108;49.988;8.182;2022-11-11T02:05:31;2.93;;;2.73;;
21886;SDS011;11108;49.988;8.182;2022-11-11T02:08:07;2.50;;;2.40;;
21886;SDS011;11108;49.988;8.182;2022-11-11T02:10:33;3.13;;;2.70;;
21886;SDS011;11108;49.988;8.182;2022-11-11T02:12:59;3.30;;;3.00;;
21886;SDS011;11108;49.988;8.182;2022-11-11T02:15:43;3.07;;;2.87;;
21886;SDS011;11108;49.988;8.182;2022-11-11T02:18:08;3.07;;;2.87;;
21886;SDS011;11108;49.988;8.182;2022-11-11T02:20:35;2.80;;;2.57;;
21886;SDS011;11108;49.988;8.182;2022-11-11T02:23:43;3.00;;;2.80;;
21886;SDS011;11108;49.988;8.182;2022-11-11T02:25:49;2.63;;;2.43;;
21886;SDS011;11108;49.988;8.182;2022-11-11T02:28:16;2.80;;;2.60;;
21886;SDS011;11108;49.988;8.182;2022-11-11T02:30:42;2.80;;;2.47;;
21886;SDS011;11108;49.988;8.182;2022-11-11T02:33:07;3.33;;;3.13;;
21886;SDS011;11108;49.988;8.182;2022-11-11T02:35:33;2.60;;;2.40;;
21886;SDS011;11108;49.988;8.182;2022-11-11T02:37:58;2.13;;;2.03;;
21886;SDS011;11108;49.988;8.182;2022-11-11T02:40:29;2.43;;;2.33;;
21886;SDS011;11108;49.988;8.182;2022-11-11T02:42:57;2.67;;;2.57;;
21886;SDS011;11108;49.988;8.182;2022-11-11T02:45:22;3.20;;;2.93;;
21886;SDS011;11108;49.988;8.182;2022-11-11T02:47:47;2.97;;;2.77;;
21886;SDS011;11108;49.988;8.182;2022-11-11T02:50:12;2.70;;;2.50;;
21886;SDS011;11108;49.988;8.182;2022-11-11T02:52:38;2.70;;;2.60;;
21886;SDS011;11108;49.988;8.182;2022-11-11T02:55:03;2.50;;;2.40;;
21886;SDS011;11108;49.988;8.182;2022-11-11T02:57:28;3.17;;;2.97;;
21886;SDS011;11108;49.988;8.182;2022-11-11T02:59:54;2.83;;;2.63;;
21886;SDS011;11108;49.988;8.182;2022-11-11T03:02:20;2.60;;;2.40;;
21886;SDS011;11108;49.988;8.182;2022-11-11T03:04:45;2.90;;;2.70;;
21886;SDS011;11108;49.988;8.182;2022-11-11T03:07:11;2.20;;;2.10;;
21886;SDS011;11108;49.988;8.182;2022-11-11T03:09:37;2.30;;;2.20;;
21886;SDS011;11108;49.988;8.182;2022-11-11T03:12:03;2.90;;;2.70;;
21886;SDS011;11108;49.988;8.182;2022-11-11T03:14:28;2.47;;;2.37;;
21886;SDS011;11108;49.988;8.182;2022-11-11T03:16:53;2.30;;;2.20;;
21886;SDS011;11108;49.988;8.182;2022-11-11T03:19:38;2.50;;;2.17;;
21886;SDS011;11108;49.988;8.182;2022-11-11T03:22:04;2.13;;;2.03;;
21886;SDS011;11108;49.988;8.182;2022-11-11T03:24:29;2.23;;;2.13;;
21886;SDS011;11108;49.988;8.182;2022-11-11T03:27:13;2.73;;;2.53;;
21886;SDS011;11108;49.988;8.182;2022-11-11T03:29:38;2.40;;;2.30;;
21886;SDS011;11108;49.988;8.182;2022-11-11T03:32:04;2.30;;;2.20;;
21886;SDS011;11108;49.988;8.182;2022-11-11T03:34:29;2.37;;;2.27;;
21886;SDS011;11108;49.988;8.182;2022-11-11T03:36:55;2.60;;;2.43;;
21886;SDS011;11108;49.988;8.182;2022-11-11T03:39:38;2.40;;;2.30;;
21886;SDS011;11108;49.988;8.182;2022-11-11T03:42:04;1.83;;;1.73;;
21886;SDS011;11108;49.988;8.182;2022-11-11T03:44:29;2.73;;;2.53;;
21886;SDS011;11108;49.988;8.182;2022-11-11T03:46:54;2.40;;;2.30;;
21886;SDS011;11108;49.988;8.182;2022-11-11T03:49:19;2.37;;;2.27;;
21886;SDS011;11108;49.988;8.182;2022-11-11T03:51:45;2.13;;;2.03;;
21886;SDS011;11108;49.988;8.182;2022-11-11T03:54:10;2.07;;;1.97;;
21886;SDS011;11108;49.988;8.182;2022-11-11T03:56:35;2.40;;;2.30;;
21886;SDS011;11108;49.988;8.182;2022-11-11T03:59:00;2.30;;;2.20;;
21886;SDS011;11108;49.988;8.182;2022-11-11T04:01:26;2.30;;;2.20;;
21886;SDS011;11108;49.988;8.182;2022-11-11T04:04:09;2.07;;;1.97;;
21886;SDS011;11108;49.988;8.182;2022-11-11T04:06:53;2.20;;;2.10;;
21886;SDS011;11108;49.988;8.182;2022-11-11T04:09:37;2.43;;;2.30;;
21886;SDS011;11108;49.988;8.182;2022-11-11T04:12:22;2.50;;;2.40;;
21886;SDS011;11108;49.988;8.182;2022-11-11T04:14:48;2.33;;;2.23;;
21886;SDS011;11108;49.988;8.182;2022-11-11T04:17:32;2.07;;;1.87;;
21886;SDS011;11108;49.988;8.182;2022-11-11T04:19:57;2.30;;;2.20;;
21886;SDS011;11108;49.988;8.182;2022-11-11T04:22:41;2.20;;;2.10;;
21886;SDS011;11108;49.988;8.182;2022-11-11T04:25:07;2.23;;;2.10;;
21886;SDS011;11108;49.988;8.182;2022-11-11T04:27:51;2.40;;;2.27;;
21886;SDS011;11108;49.988;8.182;2022-11-11T04:30:36;1.93;;;1.83;;
21886;SDS011;11108;49.988;8.182;2022-11-11T04:33:01;2.00;;;1.90;;
21886;SDS011;11108;49.988;8.182;2022-11-11T04:35:26;2.23;;;2.13;;
21886;SDS011;11108;49.988;8.182;2022-11-11T04:37:51;2.33;;;2.23;;
21886;SDS011;11108;49.988;8.182;2022-11-11T04:40:37;1.83;;;1.73;;
21886;SDS011;11108;49.988;8.182;2022-11-11T04:43:21;2.00;;;1.90;;
21886;SDS011;11108;49.988;8.182;2022-11-11T04:45:46;2.10;;;2.00;;
21886;SDS011;11108;49.988;8.182;2022-11-11T04:48:11;2.00;;;1.90;;
21886;SDS011;11108;49.988;8.182;2022-11-11T04:50:41;2.10;;;2.00;;
21886;SDS011;11108;49.988;8.182;2022-11-11T04:53:07;1.90;;;1.80;;
21886;SDS011;11108;49.988;8.182;2022-11-11T04:55:34;2.40;;;2.30;;
21886;SDS011;11108;49.988;8.182;2022-11-11T04:58:20;2.30;;;2.20;;
21886;SDS011;11108;49.988;8.182;2022-11-11T05:00:45;2.30;;;2.20;;
21886;SDS011;11108;49.988;8.182;2022-11-11T05:03:11;2.13;;;2.03;;
21886;SDS011;11108;49.988;8.182;2022-11-11T05:05:50;2.17;;;2.07;;
21886;SDS011;11108;49.988;8.182;2022-11-11T05:08:35;1.70;;;1.70;;
21886;SDS011;11108;49.988;8.182;2022-11-11T05:11:19;1.87;;;1.83;;
21886;SDS011;11108;49.988;8.182;2022-11-11T05:13:45;2.23;;;2.13;;
21886;SDS011;11108;49.988;8.182;2022-11-11T05:16:29;2.13;;;2.03;;
21886;SDS011;11108;49.988;8.182;2022-11-11T05:19:14;2.20;;;2.10;;
21886;SDS011;11108;49.988;8.182;2022-11-11T05:22:04;1.80;;;1.80;;
21886;SDS011;11108;49.988;8.182;2022-11-11T05:24:30;2.10;;;2.00;;
21886;SDS011;11108;49.988;8.182;2022-11-11T05:27:14;1.73;;;1.73;;
21886;SDS011;11108;49.988;8.182;2022-11-11T05:29:39;1.60;;;1.60;;
21886;SDS011;11108;49.988;8.182;2022-11-11T05:32:06;1.87;;;1.77;;
21886;SDS011;11108;49.988;8.182;2022-11-11T05:34:31;1.90;;;1.80;;
21886;SDS011;11108;49.988;8.182;2022-11-11T05:36:56;2.00;;;1.90;;
21886;SDS011;11108;49.988;8.182;2022-11-11T05:39:22;1.50;;;1.50;;
21886;SDS011;11108;49.988;8.182;2022-11-11T05:41:47;2.10;;;2.00;;
21886;SDS011;11108;49.988;8.182;2022-11-11T05:44:12;1.90;;;1.80;;
21886;SDS011;11108;49.988;8.182;2022-11-11T05:46:37;1.70;;;1.60;;
21886;SDS011;11108;49.988;8.182;2022-11-11T05:49:02;1.80;;;1.70;;
21886;SDS011;11108;49.988;8.182;2022-11-11T05:51:40;1.57;;;1.57;;
21886;SDS011;11108;49.988;8.182;2022-11-11T05:54:05;2.77;;;2.57;;
21886;SDS011;11108;49.988;8.182;2022-11-11T05:56:31;2.00;;;1.90;;
21886;SDS011;11108;49.988;8.182;2022-11-11T05:58:56;1.70;;;1.60;;
21886;SDS011;11108;49.988;8.182;2022-11-11T06:01:21;2.53;;;1.83;;
21886;SDS011;11108;49.988;8.182;2022-11-11T06:03:46;1.83;;;1.70;;
21886;SDS011;11108;49.988;8.182;2022-11-11T06:06:12;1.57;;;1.57;;
21886;SDS011;11108;49.988;8.182;2022-11-11T06:08:37;1.47;;;1.47;;
21886;SDS011;11108;49.988;8.182;2022-11-11T06:11:02;1.60;;;1.60;;
21886;SDS011;11108;49.988;8.182;2022-11-11T06:13:27;1.40;;;1.40;;
21886;SDS011;11108;49.988;8.182;2022-11-11T06:15:54;1.60;;;1.60;;
21886;SDS011;11108;49.988;8.182;2022-11-11T06:18:19;1.80;;;1.70;;
21886;SDS011;11108;49.988;8.182;2022-11-11T06:20:45;1.60;;;1.60;;
21886;SDS011;11108;49.988;8.182;2022-11-11T06:23:10;1.50;;;1.50;;
21886;SDS011;11108;49.988;8.182;2022-11-11T06:25:35;1.53;;;1.53;;
21886;SDS011;11108;49.988;8.182;2022-11-11T06:28:19;1.43;;;1.43;;
21886;SDS011;11108;49.988;8.182;2022-11-11T06:30:44;1.83;;;1.77;;
21886;SDS011;11108;49.988;8.182;2022-11-11T06:33:10;1.73;;;1.67;;
21886;SDS011;11108;49.988;8.182;2022-11-11T06:35:36;1.67;;;1.63;;
21886;SDS011;11108;49.988;8.182;2022-11-11T06:38:02;1.40;;;1.40;;
21886;SDS011;11108;49.988;8.182;2022-11-11T06:40:27;1.33;;;1.33;;
21886;SDS011;11108;49.988;8.182;2022-11-11T06:42:52;1.47;;;1.40;;
21886;SDS011;11108;49.988;8.182;2022-11-11T06:45:18;1.50;;;1.50;;
21886;SDS011;11108;49.988;8.182;2022-11-11T06:47:43;1.70;;;1.63;;
21886;SDS011;11108;49.988;8.182;2022-11-11T06:50:08;1.57;;;1.47;;
21886;SDS011;11108;49.988;8.182;2022-11-11T06:52:33;1.73;;;1.20;;
21886;SDS011;11108;49.988;8.182;2022-11-11T06:54:59;1.53;;;1.47;;
21886;SDS011;11108;49.988;8.182;2022-11-11T06:57:24;2.03;;;1.93;;
21886;SDS011;11108;49.988;8.182;2022-11-11T06:59:49;1.60;;;1.50;;
21886;SDS011;11108;49.988;8.182;2022-11-11T07:02:14;2.63;;;1.30;;
21886;SDS011;11108;49.988;8.182;2022-11-11T07:04:39;1.63;;;1.53;;
21886;SDS011;11108;49.988;8.182;2022-11-11T07:07:05;1.50;;;1.20;;
21886;SDS011;11108;49.988;8.182;2022-11-11T07:09:30;1.30;;;1.30;;
21886;SDS011;11108;49.988;8.182;2022-11-11T07:11:55;1.50;;;1.40;;
21886;SDS011;11108;49.988;8.182;2022-11-11T07:14:20;1.80;;;1.70;;
21886;SDS011;11108;49.988;8.182;2022-11-11T07:16:45;2.17;;;1.50;;
21886;SDS011;11108;49.988;8.182;2022-11-11T07:19:11;1.43;;;1.33;;
21886;SDS011;11108;49.988;8.182;2022-11-11T07:21:36;1.70;;;1.60;;
21886;SDS011;11108;49.988;8.182;2022-11-11T07:24:01;1.50;;;1.50;;
21886;SDS011;11108;49.988;8.182;2022-11-11T07:26:26;1.40;;;1.30;;
21886;SDS011;11108;49.988;8.182;2022-11-11T07:28:52;1.47;;;1.40;;
21886;SDS011;11108;49.988;8.182;2022-11-11T07:31:17;1.57;;;1.37;;
21886;SDS011;11108;49.988;8.182;2022-11-11T07:33:42;1.33;;;1.33;;
21886;SDS011;11108;49.988;8.182;2022-11-11T07:36:07;2.00;;;1.30;;
21886;SDS011;11108;49.988;8.182;2022-11-11T07:38:32;1.23;;;1.23;;
21886;SDS011;11108;49.988;8.182;2022-11-11T07:40:58;1.40;;;1.40;;
21886;SDS011;11108;49.988;8.182;2022-11-11T07:43:23;2.60;;;1.50;;
21886;SDS011;11108;49.988;8.182;2022-11-11T07:45:49;2.10;;;1.40;;
21886;SDS011;11108;49.988;8.182;2022-11-11T07:48:14;1.37;;;1.37;;
21886;SDS011;11108;49.988;8.182;2022-11-11T07:50:39;1.40;;;1.40;;
21886;SDS011;11108;49.988;8.182;2022-11-11T07:53:04;2.10;;;1.83;;
21886;SDS011;11108;49.988;8.182;2022-11-11T07:55:30;1.77;;;1.67;;
21886;SDS011;11108;49.988;8.182;2022-11-11T07:57:56;1.33;;;1.33;;
21886;SDS011;11108;49.988;8.182;2022-11-11T08:00:21;1.40;;;1.30;;
21886;SDS011;11108;49.988;8.182;2022-11-11T08:02:47;1.33;;;1.33;;
21886;SDS011;11108;49.988;8.182;2022-11-11T08:05:13;1.30;;;1.20;;
21886;SDS011;11108;49.988;8.182;2022-11-11T08:07:38;1.37;;;1.37;;
21886;SDS011;11108;49.988;8.182;2022-11-11T08:10:03;1.27;;;1.27;;
21886;SDS011;11108;49.988;8.182;2022-11-11T08:12:29;1.23;;;1.23;;
21886;SDS011;11108;49.988;8.182;2022-11-11T08:15:29;1.80;;;1.70;;
21886;SDS011;11108;49.988;8.182;2022-11-11T08:17:55;2.97;;;1.50;;
21886;SDS011;11108;49.988;8.182;2022-11-11T08:20:21;1.90;;;1.40;;
21886;SDS011;11108;49.988;8.182;2022-11-11T08:22:46;1.73;;;1.63;;
21886;SDS011;11108;49.988;8.182;2022-11-11T08:25:11;1.40;;;1.40;;
21886;SDS011;11108;49.988;8.182;2022-11-11T08:27:40;1.67;;;1.57;;
21886;SDS011;11108;49.988;8.182;2022-11-11T08:30:06;2.40;;;1.57;;
21886;SDS011;11108;49.988;8.182;2022-11-11T08:32:32;1.60;;;1.50;;
21886;SDS011;11108;49.988;8.182;2022-11-11T08:34:57;1.50;;;1.40;;
21886;SDS011;11108;49.988;8.182;2022-11-11T08:37:22;1.60;;;1.50;;
21886;SDS011;11108;49.988;8.182;2022-11-11T08:39:54;1.40;;;1.40;;
21886;SDS011;11108;49.988;8.182;2022-11-11T08:42:21;1.83;;;1.47;;
21886;SDS011;11108;49.988;8.182;2022-11-11T08:44:47;1.90;;;1.70;;
21886;SDS011;11108;49.988;8.182;2022-11-11T08:47:12;1.40;;;1.40;;
21886;SDS011;11108;49.988;8.182;2022-11-11T08:49:37;1.47;;;1.30;;
21886;SDS011;11108;49.988;8.182;2022-11-11T08:52:02;3.03;;;1.57;;
21886;SDS011;11108;49.988;8.182;2022-11-11T08:54:27;2.97;;;1.40;;
21886;SDS011;11108;49.988;8.182;2022-11-11T08:56:53;1.57;;;1.40;;
21886;SDS011;11108;49.988;8.182;2022-11-11T08:59:18;1.50;;;1.40;;
21886;SDS011;11108;49.988;8.182;2022-11-11T09:01:43;3.80;;;1.50;;
21886;SDS011;11108;49.988;8.182;2022-11-11T09:04:08;1.67;;;1.47;;
21886;SDS011;11108;49.988;8.182;2022-11-11T09:06:33;1.70;;;1.60;;
21886;SDS011;11108;49.988;8.182;2022-11-11T09:08:59;1.60;;;1.50;;
21886;SDS011;11108;49.988;8.182;2022-11-11T09:11:24;12.00;;;2.77;;
21886;SDS011;11108;49.988;8.182;2022-11-11T09:13:49;10.47;;;2.67;;
21886;SDS011;11108;49.988;8.182;2022-11-11T09:16:14;8.30;;;2.93;;
21886;SDS011;11108;49.988;8.182;2022-11-11T09:18:39;11.40;;;2.60;;
21886;SDS011;11108;49.988;8.182;2022-11-11T09:21:05;8.07;;;3.10;;
21886;SDS011;11108;49.988;8.182;2022-11-11T09:23:30;9.37;;;2.73;;
21886;SDS011;11108;49.988;8.182;2022-11-11T09:25:55;9.63;;;3.50;;
21886;SDS011;11108;49.988;8.182;2022-11-11T09:28:22;6.17;;;3.20;;
21886;SDS011;11108;49.988;8.182;2022-11-11T09:30:48;11.10;;;2.93;;
21886;SDS011;11108;49.988;8.182;2022-11-11T09:33:13;6.00;;;2.73;;
21886;SDS011;11108;49.988;8.182;2022-11-11T09:35:42;4.73;;;2.70;;
21886;SDS011;11108;49.988;8.182;2022-11-11T09:38:07;7.63;;;2.97;;
21886;SDS011;11108;49.988;8.182;2022-11-11T09:40:34;9.70;;;3.20;;
21886;SDS011;11108;49.988;8.182;2022-11-11T09:45:51;6.67;;;2.40;;
21886;SDS011;11108;49.988;8.182;2022-11-11T09:48:25;2.47;;;2.27;;
21886;SDS011;11108;49.988;8.182;2022-11-11T09:50:54;6.70;;;2.20;;
21886;SDS011;11108;49.988;8.182;2022-11-11T09:53:29;3.03;;;2.20;;
21886;SDS011;11108;49.988;8.182;2022-11-11T09:55:59;2.93;;;2.30;;
21886;SDS011;11108;49.988;8.182;2022-11-11T09:58:31;5.00;;;2.20;;
21886;SDS011;11108;49.988;8.182;2022-11-11T10:00:59;3.97;;;1.70;;
21886;SDS011;11108;49.988;8.182;2022-11-11T10:03:26;2.53;;;2.00;;
21886;SDS011;11108;49.988;8.182;2022-11-11T10:08:24;4.13;;;2.10;;
21886;SDS011;11108;49.988;8.182;2022-11-11T10:10:53;3.13;;;2.30;;
21886;SDS011;11108;49.988;8.182;2022-11-11T10:13:19;2.73;;;1.80;;
21886;SDS011;11108;49.988;8.182;2022-11-11T10:18:23;2.17;;;1.87;;
21886;SDS011;11108;49.988;8.182;2022-11-11T10:20:53;1.73;;;1.63;;
21886;SDS011;11108;49.988;8.182;2022-11-11T10:23:20;2.87;;;2.33;;
21886;SDS011;11108;49.988;8.182;2022-11-11T10:25:54;3.37;;;2.10;;
21886;SDS011;11108;49.988;8.182;2022-11-11T10:28:20;2.13;;;1.50;;
21886;SDS011;11108;49.988;8.182;2022-11-11T10:30:46;1.73;;;1.53;;
21886;SDS011;11108;49.988;8.182;2022-11-11T10:33:16;2.20;;;1.90;;
21886;SDS011;11108;49.988;8.182;2022-11-11T10:35:42;3.30;;;1.90;;
21886;SDS011;11108;49.988;8.182;2022-11-11T10:40:36;6.17;;;2.33;;
21886;SDS011;11108;49.988;8.182;2022-11-11T10:43:03;2.47;;;2.20;;
21886;SDS011;11108;49.988;8.182;2022-11-11T10:45:32;4.60;;;2.00;;
21886;SDS011;11108;49.988;8.182;2022-11-11T10:47:59;6.53;;;3.63;;
21886;SDS011;11108;49.988;8.182;2022-11-11T10:50:26;7.90;;;4.47;;
21886;SDS011;11108;49.988;8.182;2022-11-11T10:55:24;5.90;;;3.87;;
21886;SDS011;11108;49.988;8.182;2022-11-11T11:00:18;3.30;;;2.93;;
21886;SDS011;11108;49.988;8.182;2022-11-11T11:02:54;3.73;;;2.80;;
21886;SDS011;11108;49.988;8.182;2022-11-11T11:05:37;3.47;;;2.40;;
21886;SDS011;11108;49.988;8.182;2022-11-11T11:08:08;3.03;;;2.40;;
21886;SDS011;11108;49.988;8.182;2022-11-11T11:10:38;2.23;;;2.10;;
21886;SDS011;11108;49.988;8.182;2022-11-11T11:13:11;2.50;;;2.30;;
21886;SDS011;11108;49.988;8.182;2022-11-11T11:15:40;2.33;;;2.13;;
21886;SDS011;11108;49.988;8.182;2022-11-11T11:18:12;4.03;;;1.87;;
21886;SDS011;11108;49.988;8.182;2022-11-11T11:20:38;3.23;;;1.87;;
21886;SDS011;11108;49.988;8.182;2022-11-11T11:23:03;3.03;;;2.67;;
21886;SDS011;11108;49.988;8.182;2022-11-11T11:25:30;2.03;;;1.80;;
21886;SDS011;11108;49.988;8.182;2022-11-11T11:28:30;2.77;;;1.80;;
21886;SDS011;11108;49.988;8.182;2022-11-11T11:30:58;3.20;;;1.93;;
21886;SDS011;11108;49.988;8.182;2022-11-11T11:33:24;2.43;;;1.90;;
21886;SDS011;11108;49.988;8.182;2022-11-11T11:35:49;3.50;;;2.03;;
21886;SDS011;11108;49.988;8.182;2022-11-11T11:38:15;1.97;;;1.70;;
21886;SDS011;11108;49.988;8.182;2022-11-11T11:40:44;2.47;;;2.03;;
21886;SDS011;11108;49.988;8.182;2022-11-11T11:43:29;2.30;;;1.80;;
21886;SDS011;11108;49.988;8.182;2022-11-11T11:45:56;2.07;;;1.90;;
21886;SDS011;11108;49.988;8.182;2022-11-11T11:48:26;3.27;;;1.90;;
21886;SDS011;11108;49.988;8.182;2022-11-11T11:50:59;2.10;;;1.90;;
21886;SDS011;11108;49.988;8.182;2022-11-11T11:53:33;2.23;;;2.00;;
21886;SDS011;11108;49.988;8.182;2022-11-11T11:56:03;2.73;;;1.80;;
21886;SDS011;11108;49.988;8.182;2022-11-11T12:03:48;2.97;;;2.00;;
21886;SDS011;11108;49.988;8.182;2022-11-11T12:06:21;1.87;;;1.77;;
21886;SDS011;11108;49.988;8.182;2022-11-11T12:16:25;3.13;;;1.97;;
21886;SDS011;11108;49.988;8.182;2022-11-11T12:19:00;2.10;;;1.90;;
21886;SDS011;11108;49.988;8.182;2022-11-11T12:21:33;5.17;;;3.03;;
21886;SDS011;11108;49.988;8.182;2022-11-11T12:24:12;7.27;;;4.10;;
21886;SDS011;11108;49.988;8.182;2022-11-11T12:26:42;7.27;;;3.93;;
21886;SDS011;11108;49.988;8.182;2022-11-11T12:29:20;7.20;;;3.63;;
21886;SDS011;11108;49.988;8.182;2022-11-11T12:31:55;8.87;;;6.10;;
21886;SDS011;11108;49.988;8.182;2022-11-11T12:37:11;11.87;;;8.53;;
21886;SDS011;11108;49.988;8.182;2022-11-11T12:44:54;16.13;;;11.30;;
21886;SDS011;11108;49.988;8.182;2022-11-11T12:47:26;17.00;;;11.37;;
21886;SDS011;11108;49.988;8.182;2022-11-11T12:50:07;18.10;;;11.53;;
21886;SDS011;11108;49.988;8.182;2022-11-11T12:57:50;22.27;;;14.40;;
21886;SDS011;11108;49.988;8.182;2022-11-11T13:00:18;22.47;;;15.13;;
21886;SDS011;11108;49.988;8.182;2022-11-11T13:10:43;32.63;;;16.60;;
21886;SDS011;11108;49.988;8.182;2022-11-11T13:13:24;28.37;;;16.50;;
21886;SDS011;11108;49.988;8.182;2022-11-11T13:15:52;26.07;;;16.40;;
21886;SDS011;11108;49.988;8.182;2022-11-11T13:18:19;25.27;;;17.10;;
21886;SDS011;11108;49.988;8.182;2022-11-11T13:20:55;27.33;;;16.57;;
21886;SDS011;11108;49.988;8.182;2022-11-11T13:23:21;25.43;;;15.80;;
21886;SDS011;11108;49.988;8.182;2022-11-11T13:25:46;25.87;;;16.77;;
21886;SDS011;11108;49.988;8.182;2022-11-11T13:28:20;25.73;;;16.33;;
21886;SDS011;11108;49.988;8.182;2022-11-11T13:30:56;22.90;;;15.50;;
21886;SDS011;11108;49.988;8.182;2022-11-11T13:33:39;22.50;;;14.90;;
21886;SDS011;11108;49.988;8.182;2022-11-11T13:36:06;24.10;;;13.97;;
21886;SDS011;11108;49.988;8.182;2022-11-11T13:38:36;21.87;;;15.43;;
21886;SDS011;11108;49.988;8.182;2022-11-11T13:41:04;25.27;;;15.07;;
21886;SDS011;11108;49.988;8.182;2022-11-11T13:43:43;20.43;;;14.37;;
21886;SDS011;11108;49.988;8.182;2022-11-11T13:48:54;24.60;;;12.93;;
21886;SDS011;11108;49.988;8.182;2022-11-11T13:51:29;22.43;;;13.40;;
21886;SDS011;11108;49.988;8.182;2022-11-11T13:53:56;18.37;;;12.17;;
21886;SDS011;11108;49.988;8.182;2022-11-11T13:58:50;20.37;;;12.17;;
21886;SDS011;11108;49.988;8.182;2022-11-11T14:01:15;18.83;;;12.20;;
21886;SDS011;11108;49.988;8.182;2022-11-11T14:13:50;20.50;;;12.10;;
21886;SDS011;11108;49.988;8.182;2022-11-11T14:24:08;17.73;;;10.07;;
21886;SDS011;11108;49.988;8.182;2022-11-11T14:26:33;17.87;;;9.97;;
21886;SDS011;11108;49.988;8.182;2022-11-11T14:29:01;14.97;;;9.23;;
21886;SDS011;11108;49.988;8.182;2022-11-11T14:33:58;20.27;;;9.80;;
21886;SDS011;11108;49.988;8.182;2022-11-11T14:36:28;13.57;;;8.67;;
21886;SDS011;11108;49.988;8.182;2022-11-11T14:59:54;11.20;;;7.03;;
21886;SDS011;11108;49.988;8.182;2022-11-11T15:02:21;11.33;;;7.63;;
21886;SDS011;11108;49.988;8.182;2022-11-11T15:04:47;12.87;;;7.77;;
21886;SDS011;11108;49.988;8.182;2022-11-11T15:10:18;11.53;;;7.70;;
21886;SDS011;11108;49.988;8.182;2022-11-11T15:12:51;13.20;;;8.20;;
21886;SDS011;11108;49.988;8.182;2022-11-11T15:18:19;9.37;;;7.00;;
21886;SDS011;11108;49.988;8.182;2022-11-11T15:23:26;12.77;;;7.33;;
21886;SDS011;11108;49.988;8.182;2022-11-11T15:26:08;10.77;;;6.93;;
21886;SDS011;11108;49.988;8.182;2022-11-11T15:28:42;9.27;;;6.37;;
21886;SDS011;11108;49.988;8.182;2022-11-11T15:39:12;9.93;;;6.53;;
21886;SDS011;11108;49.988;8.182;2022-11-11T15:41:40;10.93;;;7.13;;
21886;SDS011;11108;49.988;8.182;2022-11-11T15:44:07;7.40;;;5.97;;
21886;SDS011;11108;49.988;8.182;2022-11-11T15:46:35;9.33;;;6.83;;
21886;SDS011;11108;49.988;8.182;2022-11-11T15:49:02;12.93;;;7.00;;
21886;SDS011;11108;49.988;8.182;2022-11-11T15:51:28;8.73;;;6.23;;
21886;SDS011;11108;49.988;8.182;2022-11-11T15:54:07;8.40;;;5.97;;
21886;SDS011;11108;49.988;8.182;2022-11-11T15:56:32;9.97;;;6.23;;
21886;SDS011;11108;49.988;8.182;2022-11-11T15:59:13;10.20;;;6.27;;
21886;SDS011;11108;49.988;8.182;2022-11-11T16:01:40;11.67;;;6.77;;
21886;SDS011;11108;49.988;8.182;2022-11-11T16:04:09;10.57;;;6.53;;
21886;SDS011;11108;49.988;8.182;2022-11-11T16:06:38;7.67;;;5.97;;
21886;SDS011;11108;49.988;8.182;2022-11-11T16:09:04;7.80;;;5.97;;
21886;SDS011;11108;49.988;8.182;2022-11-11T16:11:30;6.77;;;5.63;;
21886;SDS011;11108;49.988;8.182;2022-11-11T16:13:57;7.67;;;6.27;;
21886;SDS011;11108;49.988;8.182;2022-11-11T16:16:25;8.20;;;5.87;;
21886;SDS011;11108;49.988;8.182;2022-11-11T16:18:53;6.80;;;5.53;;
21886;SDS011;11108;49.988;8.182;2022-11-11T16:21:20;8.87;;;6.40;;
21886;SDS011;11108;49.988;8.182;2022-11-11T16:23:46;8.50;;;6.33;;
21886;SDS011;11108;49.988;8.182;2022-11-11T16:26:11;7.97;;;5.23;;
21886;SDS011;11108;49.988;8.182;2022-11-11T16:28:41;8.53;;;5.57;;
21886;SDS011;11108;49.988;8.182;2022-11-11T16:33:51;8.37;;;5.73;;
21886;SDS011;11108;49.988;8.182;2022-11-11T16:36:16;9.27;;;5.87;;
21886;SDS011;11108;49.988;8.182;2022-11-11T16:38:42;8.67;;;4.90;;
21886;SDS011;11108;49.988;8.182;2022-11-11T16:41:27;6.23;;;5.17;;
21886;SDS011;11108;49.988;8.182;2022-11-11T16:43:53;6.50;;;5.10;;
21886;SDS011;11108;49.988;8.182;2022-11-11T16:49:42;8.77;;;5.17;;
21886;SDS011;11108;49.988;8.182;2022-11-11T16:51:48;7.67;;;5.00;;
21886;SDS011;11108;49.988;8.182;2022-11-11T16:54:14;5.60;;;4.83;;
21886;SDS011;11108;49.988;8.182;2022-11-11T16:56:41;6.17;;;4.30;;
21886;SDS011;11108;49.988;8.182;2022-11-11T16:59:09;6.50;;;4.57;;
21886;SDS011;11108;49.988;8.182;2022-11-11T17:01:42;6.57;;;4.77;;